This is the latest recevied weather packets stored in our database for station/object E22ZMG-3. If no packets are shown the sender has not sent any weather packets the latest 10 day(s).
| Time | Temp. | Humidity | Pressure | Rain* | Wind** | Luminosity | Snow |
|---|---|---|---|---|---|---|---|
| 1778396712 | 39.44° C | 37% | 974 hPa | - | - | 0 W/m² | - |
| 1778396088 | 39.44° C | 36% | 974 hPa | - | - | 0 W/m² | - |
| 1778395462 | 40° C | 35% | 974 hPa | - | - | 0 W/m² | - |
| 1778394837 | 38.33° C | 37% | 974 hPa | - | - | 0 W/m² | - |
| 1778394213 | 39.44° C | 37% | 975 hPa | - | - | 0 W/m² | - |
| 1778393587 | 37.78° C | 39% | 975 hPa | - | - | 0 W/m² | - |
| 1778392963 | 39.44° C | 37% | 975 hPa | - | - | 0 W/m² | - |
| 1778392339 | 39.44° C | 38% | 976 hPa | - | - | 0 W/m² | - |
| 1778391715 | 38.33° C | 39% | 976 hPa | - | - | 0 W/m² | - |
| 1778391089 | 38.89° C | 40% | 976 hPa | - | - | 0 W/m² | - |
| 1778390465 | 38.33° C | 40% | 976 hPa | - | - | 0 W/m² | - |
| 1778389839 | 37.78° C | 41% | 977 hPa | - | - | 0 W/m² | - |
| 1778389215 | 37.78° C | 40% | 977 hPa | - | - | 0 W/m² | - |
| 1778388591 | 37.78° C | 43% | 977 hPa | - | - | 0 W/m² | - |
| 1778387966 | 37.22° C | 45% | 977 hPa | - | - | 0 W/m² | - |
| 1778387342 | 37.78° C | 44% | 977 hPa | - | - | 0 W/m² | - |
| 1778386717 | 36.67° C | 45% | 977 hPa | - | - | 0 W/m² | - |
| 1778386091 | 36.11° C | 47% | 977 hPa | - | - | 0 W/m² | - |
| 1778385467 | 36.11° C | 45% | 978 hPa | - | - | 0 W/m² | - |
| 1778384842 | 36.67° C | 45% | 978 hPa | - | - | 0 W/m² | - |
| 1778384218 | 36.11° C | 47% | 978 hPa | - | - | 0 W/m² | - |
| 1778383593 | 35.56° C | 47% | 978 hPa | - | - | 0 W/m² | - |
| 1778382969 | 35.56° C | 48% | 978 hPa | - | - | 0 W/m² | - |
| 1778382344 | 35.56° C | 49% | 978 hPa | - | - | 0 W/m² | - |
| 1778381720 | 35° C | 50% | 978 hPa | - | - | 0 W/m² | - |
* Rain since midnight (hover to see other rain measurements)
** Current wind speed in m/s (hover to see current wind gust speed)